createdAt,value
2023-01-19T00:01:41.650Z,1.09
2023-01-19T00:04:09.491Z,1.13
2023-01-19T00:06:37.270Z,1.15
2023-01-19T00:09:05.083Z,1.20
2023-01-19T00:11:32.841Z,1.24
2023-01-19T00:14:00.586Z,1.23
2023-01-19T00:16:29.766Z,1.27
2023-01-19T00:18:57.586Z,1.30
2023-01-19T00:21:25.334Z,1.30
2023-01-19T00:23:53.135Z,1.30
2023-01-19T00:26:23.636Z,1.31
2023-01-19T00:28:52.917Z,1.39
2023-01-19T00:31:21.652Z,1.37
2023-01-19T00:33:52.632Z,1.30
2023-01-19T00:36:20.736Z,1.26
2023-01-19T00:38:48.514Z,1.24
2023-01-19T00:41:16.384Z,1.19
2023-01-19T00:43:43.393Z,1.15
2023-01-19T00:46:11.638Z,1.19
2023-01-19T00:48:39.433Z,1.15
2023-01-19T00:51:08.560Z,1.09
2023-01-19T00:53:36.290Z,1.10
2023-01-19T00:56:04.091Z,0.97
2023-01-19T00:58:31.858Z,1.00
2023-01-19T01:01:03.692Z,0.97
2023-01-19T01:03:31.720Z,0.95
2023-01-19T01:05:59.608Z,1.03
2023-01-19T01:08:28.717Z,0.99
2023-01-19T01:10:56.863Z,1.01
2023-01-19T01:13:27.311Z,0.96
2023-01-19T01:15:56.932Z,0.97
2023-01-19T01:18:25.586Z,1.00
2023-01-19T01:20:55.319Z,1.06
2023-01-19T01:23:24.215Z,1.07
2023-01-19T01:25:53.731Z,1.03
2023-01-19T01:28:21.491Z,1.03
2023-01-19T01:30:49.357Z,0.96
2023-01-19T01:33:39.851Z,0.99
2023-01-19T01:36:05.431Z,0.93
2023-01-19T01:38:33.209Z,0.96
2023-01-19T01:41:02.274Z,0.95
2023-01-19T01:43:43.844Z,0.93
2023-01-19T01:46:15.382Z,0.90
2023-01-19T01:48:45.510Z,0.88
2023-01-19T01:51:27.884Z,0.78
2023-01-19T01:54:09.460Z,0.79
2023-01-19T01:56:41.266Z,0.75
2023-01-19T01:59:12.360Z,0.73
2023-01-19T02:01:58.178Z,0.69
2023-01-19T02:04:27.747Z,0.64
2023-01-19T02:07:15.677Z,0.62
2023-01-19T02:10:00.984Z,0.69
2023-01-19T02:12:48.201Z,0.70
2023-01-19T02:15:17.609Z,0.68
2023-01-19T02:17:45.235Z,0.65
2023-01-19T02:20:14.175Z,0.61
2023-01-19T02:22:48.907Z,0.62
2023-01-19T02:25:20.087Z,0.66
2023-01-19T02:27:50.134Z,0.64
2023-01-19T02:30:18.911Z,0.68
2023-01-19T02:32:46.903Z,0.68
2023-01-19T02:35:14.866Z,0.65
2023-01-19T02:37:44.737Z,0.72
2023-01-19T02:40:15.702Z,0.64
2023-01-19T02:42:47.943Z,0.64
2023-01-19T02:45:22.960Z,0.62
2023-01-19T02:47:52.720Z,0.55
2023-01-19T02:50:49.167Z,0.62
2023-01-19T02:53:40.595Z,0.64
2023-01-19T02:56:27.858Z,0.66
2023-01-19T02:59:02.326Z,0.68
2023-01-19T03:01:41.368Z,0.76
2023-01-19T03:04:17.191Z,0.76
2023-01-19T03:06:50.389Z,0.78
2023-01-19T03:09:26.213Z,0.82
2023-01-19T03:12:02.236Z,0.82
2023-01-19T03:14:34.692Z,0.88
2023-01-19T03:17:06.859Z,0.89
2023-01-19T03:19:37.523Z,0.90
2023-01-19T03:22:11.838Z,0.86
2023-01-19T03:24:43.373Z,0.89
2023-01-19T03:27:14.895Z,0.92
2023-01-19T03:29:50.780Z,0.95
2023-01-19T03:32:22.831Z,1.00
2023-01-19T03:34:52.471Z,1.03
2023-01-19T03:37:21.488Z,1.03
2023-01-19T03:39:49.302Z,1.10
2023-01-19T03:42:18.735Z,1.16
2023-01-19T03:44:50.539Z,1.13
2023-01-19T03:47:20.347Z,1.17
2023-01-19T03:49:48.888Z,1.22
2023-01-19T03:52:16.682Z,1.10
2023-01-19T03:54:44.565Z,1.09
2023-01-19T03:57:12.846Z,1.03
2023-01-19T03:59:40.837Z,1.07
2023-01-19T04:02:10.027Z,1.09
2023-01-19T04:04:37.794Z,1.12
2023-01-19T04:07:05.576Z,1.12
2023-01-19T04:09:33.501Z,1.12
2023-01-19T04:12:01.895Z,1.16
2023-01-19T04:14:29.672Z,1.15
2023-01-19T04:16:57.490Z,1.17
2023-01-19T04:19:26.734Z,1.19
2023-01-19T04:21:55.368Z,1.19
2023-01-19T04:24:23.173Z,1.19
2023-01-19T04:26:52.649Z,1.29
2023-01-19T04:29:20.344Z,1.31
2023-01-19T04:31:48.136Z,1.30
2023-01-19T04:34:15.895Z,1.30
2023-01-19T04:36:46.654Z,1.34
2023-01-19T04:39:14.444Z,1.36
2023-01-19T04:41:42.208Z,1.43
2023-01-19T04:44:10.038Z,1.43
2023-01-19T04:46:37.823Z,1.40
2023-01-19T04:49:05.559Z,1.44
2023-01-19T04:51:34.244Z,1.50
2023-01-19T04:54:03.962Z,1.52
2023-01-19T04:56:31.782Z,1.52
2023-01-19T04:58:59.548Z,1.52
2023-01-19T05:01:27.491Z,1.48
2023-01-19T05:03:55.375Z,1.51
2023-01-19T05:06:23.131Z,1.55
2023-01-19T05:08:50.925Z,1.61
2023-01-19T05:11:20.028Z,1.51
2023-01-19T05:13:48.475Z,1.51
2023-01-19T05:16:17.475Z,1.52
2023-01-19T05:18:45.268Z,1.47
2023-01-19T05:21:13.243Z,1.52
2023-01-19T05:23:41.157Z,1.50
2023-01-19T05:26:10.477Z,1.41
2023-01-19T05:28:39.469Z,1.31
2023-01-19T05:31:07.504Z,1.24
2023-01-19T05:33:35.377Z,1.26
2023-01-19T05:36:04.247Z,1.34
2023-01-19T05:38:35.957Z,1.34
2023-01-19T05:41:04.082Z,1.30
2023-01-19T05:43:31.906Z,1.33
2023-01-19T05:46:00.999Z,1.24
2023-01-19T05:48:28.789Z,1.20
2023-01-19T05:50:59.118Z,1.15
2023-01-19T05:53:27.560Z,1.03
2023-01-19T05:56:00.601Z,1.00
2023-01-19T05:58:28.773Z,0.95
2023-01-19T06:00:56.638Z,0.96
2023-01-19T06:03:25.861Z,1.00
2023-01-19T06:05:53.604Z,0.97
2023-01-19T06:08:21.385Z,0.95
2023-01-19T06:10:49.139Z,0.97
2023-01-19T06:13:17.429Z,0.99
2023-01-19T06:15:45.233Z,0.99
2023-01-19T06:18:13.005Z,1.00
2023-01-19T06:20:42.132Z,1.04
2023-01-19T06:23:10.593Z,1.07
2023-01-19T06:25:38.532Z,1.07
2023-01-19T06:28:06.395Z,1.09
2023-01-19T06:30:34.238Z,1.06
2023-01-19T06:33:02.435Z,1.07
2023-01-19T06:35:30.556Z,1.07
2023-01-19T06:37:59.679Z,1.13
2023-01-19T06:40:27.423Z,1.13
2023-01-19T06:42:55.320Z,1.13
2023-01-19T06:45:23.187Z,1.15
2023-01-19T06:47:50.955Z,1.26
2023-01-19T06:50:18.752Z,1.33
2023-01-19T06:52:46.480Z,1.39
2023-01-19T06:55:16.209Z,1.44
2023-01-19T06:57:44.357Z,1.57
2023-01-19T07:00:14.824Z,1.60
2023-01-19T07:02:43.619Z,1.58
2023-01-19T07:05:14.264Z,1.64
2023-01-19T07:07:43.148Z,1.51
2023-01-19T07:10:13.003Z,1.39
2023-01-19T07:12:42.201Z,1.33
2023-01-19T07:15:11.682Z,1.39
2023-01-19T07:17:39.475Z,1.27
2023-01-19T07:20:08.842Z,1.13
2023-01-19T07:22:36.412Z,1.13
2023-01-19T07:25:04.781Z,1.13
2023-01-19T07:27:32.527Z,1.24
2023-01-19T07:30:01.757Z,1.44
2023-01-19T07:32:29.964Z,1.39
2023-01-19T07:34:57.831Z,1.24
2023-01-19T07:37:25.657Z,1.26
2023-01-19T07:39:53.409Z,1.13
2023-01-19T07:42:21.187Z,1.27
2023-01-19T07:44:49.481Z,1.23
2023-01-19T07:47:18.671Z,1.17
2023-01-19T07:49:46.650Z,1.20
2023-01-19T07:52:14.473Z,1.22
2023-01-19T07:54:42.298Z,1.19
2023-01-19T07:57:10.103Z,1.22
2023-01-19T07:59:38.706Z,1.22
2023-01-19T08:02:07.872Z,1.26
2023-01-19T08:04:37.325Z,1.34
2023-01-19T08:07:05.130Z,1.33
2023-01-19T08:09:32.996Z,1.44
2023-01-19T08:12:00.784Z,1.48
2023-01-19T08:14:28.546Z,1.58
2023-01-19T08:17:00.358Z,1.47
2023-01-19T08:19:28.271Z,1.43
2023-01-19T08:21:59.001Z,1.44
2023-01-19T08:24:29.029Z,1.41
2023-01-19T08:27:00.179Z,1.52
2023-01-19T08:29:30.593Z,1.51
2023-01-19T08:32:00.126Z,1.67
2023-01-19T08:34:31.953Z,1.65
2023-01-19T08:37:01.189Z,1.57
2023-01-19T08:39:29.001Z,1.62
2023-01-19T08:41:56.923Z,1.68
2023-01-19T08:44:24.684Z,1.60
2023-01-19T08:46:52.437Z,1.62
2023-01-19T08:49:20.589Z,1.62
2023-01-19T08:51:49.087Z,1.64
2023-01-19T08:54:18.770Z,1.67
2023-01-19T08:56:46.580Z,1.70
2023-01-19T08:59:14.403Z,1.68
2023-01-19T09:01:42.469Z,1.70
2023-01-19T09:04:10.357Z,1.70
2023-01-19T09:06:38.212Z,1.67
2023-01-19T09:09:06.021Z,1.72
2023-01-19T09:11:35.158Z,1.71
2023-01-19T09:14:03.210Z,1.68
2023-01-19T09:16:30.990Z,1.79
2023-01-19T09:18:58.738Z,1.86
2023-01-19T09:21:26.651Z,1.95
2023-01-19T09:23:54.690Z,1.98
2023-01-19T09:26:23.701Z,2.11
2023-01-19T09:28:52.925Z,2.23
2023-01-19T09:31:21.469Z,2.30
2023-01-19T09:33:49.296Z,2.30
2023-01-19T09:36:17.071Z,2.32
2023-01-19T09:38:44.835Z,2.22
2023-01-19T09:41:18.175Z,2.12
2023-01-19T09:43:49.047Z,2.02
2023-01-19T09:46:22.514Z,2.05
2023-01-19T09:48:53.269Z,2.09
2023-01-19T09:51:24.544Z,2.08
2023-01-19T09:53:57.339Z,2.09
2023-01-19T09:56:26.144Z,2.05
2023-01-19T09:58:54.128Z,2.09
2023-01-19T10:01:37.273Z,2.16
2023-01-19T10:04:30.937Z,2.36
2023-01-19T10:07:07.675Z,2.52
2023-01-19T10:09:42.731Z,2.65
2023-01-19T10:12:23.302Z,2.79
2023-01-19T10:14:58.558Z,2.73
2023-01-19T10:17:39.964Z,2.57
2023-01-19T10:20:16.034Z,2.49
2023-01-19T10:22:46.243Z,2.53
2023-01-19T10:25:19.816Z,2.52
2023-01-19T10:27:48.168Z,2.56
2023-01-19T10:30:22.575Z,2.49
2023-01-19T10:32:52.689Z,2.39
2023-01-19T10:35:24.982Z,2.39
2023-01-19T10:37:56.074Z,2.32
2023-01-19T10:40:34.744Z,2.30
2023-01-19T10:43:03.010Z,2.36
2023-01-19T10:45:32.539Z,2.34
2023-01-19T10:48:08.231Z,2.39
2023-01-19T10:50:39.740Z,2.34
2023-01-19T10:53:20.451Z,2.39
2023-01-19T10:55:48.272Z,2.37
2023-01-19T10:58:28.964Z,2.43
2023-01-19T11:00:56.881Z,2.33
2023-01-19T11:03:29.259Z,2.26
2023-01-19T11:06:23.255Z,2.28
2023-01-19T11:08:54.064Z,2.33
2023-01-19T11:11:22.981Z,2.34
2023-01-19T11:14:08.059Z,2.36
2023-01-19T11:16:38.144Z,2.32
2023-01-19T11:19:20.119Z,2.33
2023-01-19T11:21:47.917Z,2.32
2023-01-19T11:24:16.504Z,2.36
2023-01-19T11:26:47.904Z,2.39
2023-01-19T11:29:20.132Z,2.42
2023-01-19T11:31:48.846Z,2.40
2023-01-19T11:34:33.136Z,2.39
2023-01-19T11:37:03.653Z,2.39
2023-01-19T11:39:33.051Z,2.42
2023-01-19T11:42:03.318Z,2.37
2023-01-19T11:44:34.255Z,2.43
2023-01-19T11:47:04.442Z,2.43
2023-01-19T11:49:43.357Z,2.40
2023-01-19T11:52:25.095Z,2.46
2023-01-19T11:54:57.171Z,2.43
2023-01-19T11:57:25.709Z,2.39
2023-01-19T11:59:54.554Z,2.33
2023-01-19T12:02:28.040Z,2.32
2023-01-19T12:05:01.316Z,2.33
2023-01-19T12:07:32.753Z,2.34
2023-01-19T12:10:19.840Z,2.30
2023-01-19T12:12:49.173Z,2.26
2023-01-19T12:15:22.363Z,2.28
2023-01-19T12:17:52.295Z,2.30
2023-01-19T12:20:28.965Z,2.42
2023-01-19T12:23:06.143Z,2.52
2023-01-19T12:25:48.867Z,2.53
2023-01-19T12:28:19.147Z,2.53
2023-01-19T12:30:47.207Z,2.53
2023-01-19T12:33:22.220Z,2.65
2023-01-19T12:35:59.563Z,2.73
2023-01-19T12:38:47.372Z,2.76
2023-01-19T12:41:31.098Z,2.73
2023-01-19T12:44:27.677Z,2.77
2023-01-19T12:46:57.544Z,2.79
2023-01-19T12:49:32.554Z,2.81
2023-01-19T12:52:24.968Z,2.88
2023-01-19T12:54:58.293Z,2.91
2023-01-19T12:57:30.707Z,2.93
2023-01-19T13:00:00.347Z,2.98
2023-01-19T13:02:54.080Z,3.12
2023-01-19T13:05:25.755Z,3.12
2023-01-19T13:08:23.750Z,3.14
2023-01-19T13:11:19.558Z,3.19
2023-01-19T13:14:27.350Z,3.09
2023-01-19T13:17:07.155Z,3.00
2023-01-19T13:19:50.825Z,2.97
2023-01-19T13:22:52.248Z,2.90
2023-01-19T13:25:30.792Z,2.84
2023-01-19T13:27:58.910Z,2.83
2023-01-19T13:30:28.879Z,2.80
2023-01-19T13:33:02.451Z,2.85
2023-01-19T13:35:30.352Z,2.81
2023-01-19T13:37:59.932Z,2.84
2023-01-19T13:40:38.117Z,2.71
2023-01-19T13:43:13.807Z,2.74
2023-01-19T13:45:41.957Z,2.74
2023-01-19T13:48:15.662Z,2.71
2023-01-19T13:50:45.346Z,2.73
2023-01-19T13:53:20.507Z,2.77
2023-01-19T13:55:49.743Z,2.73
2023-01-19T13:58:22.199Z,2.80
2023-01-19T14:00:50.303Z,2.71
2023-01-19T14:03:23.629Z,2.67
2023-01-19T14:05:52.746Z,2.57
2023-01-19T14:08:21.180Z,2.56
2023-01-19T14:11:02.162Z,2.54
2023-01-19T14:13:31.502Z,2.57
2023-01-19T14:16:00.253Z,2.54
2023-01-19T14:18:30.199Z,2.56
2023-01-19T14:21:01.212Z,2.57
2023-01-19T14:23:44.054Z,2.57
2023-01-19T14:26:43.257Z,2.60
2023-01-19T14:29:28.866Z,2.65
2023-01-19T14:32:12.271Z,2.74
2023-01-19T14:34:41.652Z,2.70
2023-01-19T14:37:30.240Z,2.68
2023-01-19T14:40:04.626Z,2.60
2023-01-19T14:42:36.953Z,2.65
2023-01-19T14:45:09.029Z,2.70
2023-01-19T14:47:39.622Z,2.73
2023-01-19T14:50:18.630Z,2.73
2023-01-19T14:52:53.531Z,2.64
2023-01-19T14:55:24.934Z,2.71
2023-01-19T14:57:55.206Z,2.73
2023-01-19T15:00:23.536Z,2.70
2023-01-19T15:02:51.335Z,2.63
2023-01-19T15:05:19.418Z,2.46
2023-01-19T15:07:47.883Z,2.36
2023-01-19T15:10:20.617Z,2.29
2023-01-19T15:12:49.167Z,2.25
2023-01-19T15:15:25.816Z,2.21
2023-01-19T15:17:56.286Z,2.13
2023-01-19T15:20:24.380Z,2.13
2023-01-19T15:22:52.141Z,2.11
2023-01-19T15:25:21.856Z,2.06
2023-01-19T15:27:50.319Z,2.02
2023-01-19T15:30:22.404Z,1.95
2023-01-19T15:32:50.393Z,1.89
2023-01-19T15:35:20.704Z,1.85
2023-01-19T15:37:49.671Z,1.78
2023-01-19T15:40:19.972Z,1.71
2023-01-19T15:42:47.844Z,1.52
2023-01-19T15:45:32.704Z,1.44
2023-01-19T15:48:01.495Z,1.36
2023-01-19T15:50:29.459Z,1.30
2023-01-19T15:52:57.307Z,1.37
2023-01-19T15:55:25.330Z,1.36
2023-01-19T15:57:53.487Z,1.26
2023-01-19T16:00:22.859Z,1.41
2023-01-19T16:02:52.116Z,1.57
2023-01-19T16:05:20.664Z,1.68
2023-01-19T16:07:49.203Z,1.77
2023-01-19T16:10:17.270Z,1.83
2023-01-19T16:12:45.361Z,1.82
2023-01-19T16:15:13.527Z,1.86
2023-01-19T16:17:42.719Z,1.88
2023-01-19T16:20:14.438Z,1.83
2023-01-19T16:22:42.554Z,1.91
2023-01-19T16:25:10.972Z,1.94
2023-01-19T16:27:38.835Z,1.92
2023-01-19T16:30:07.993Z,1.97
2023-01-19T16:32:36.400Z,1.97
2023-01-19T16:35:06.226Z,2.03
2023-01-19T16:37:34.049Z,1.99
2023-01-19T16:40:01.872Z,1.99
2023-01-19T16:42:29.738Z,2.02
2023-01-19T16:44:57.555Z,2.06
2023-01-19T16:47:25.427Z,2.09
2023-01-19T16:49:53.272Z,2.06
2023-01-19T16:52:22.514Z,2.05
2023-01-19T16:54:54.517Z,2.06
2023-01-19T16:57:22.280Z,2.05
2023-01-19T16:59:51.386Z,2.08
2023-01-19T17:02:19.401Z,2.08
2023-01-19T17:04:47.176Z,2.12
2023-01-19T17:07:14.977Z,2.12
2023-01-19T17:09:44.050Z,2.16
2023-01-19T17:12:12.590Z,2.11
2023-01-19T17:14:40.397Z,2.11
2023-01-19T17:17:09.338Z,2.11
2023-01-19T17:19:37.263Z,2.09
2023-01-19T17:22:05.154Z,2.05
2023-01-19T17:24:33.347Z,2.06
2023-01-19T17:27:02.602Z,2.02
2023-01-19T17:29:30.463Z,1.95
2023-01-19T17:31:58.214Z,2.02
2023-01-19T17:34:26.034Z,2.08
2023-01-19T17:36:56.665Z,2.08
2023-01-19T17:39:24.448Z,2.06
2023-01-19T17:41:52.195Z,2.01
2023-01-19T17:44:21.314Z,1.91
2023-01-19T17:46:49.136Z,1.86
2023-01-19T17:49:16.991Z,1.81
2023-01-19T17:51:44.800Z,1.70
2023-01-19T17:54:13.963Z,1.61
2023-01-19T17:56:41.874Z,1.70
2023-01-19T17:59:09.797Z,1.75
2023-01-19T18:01:40.544Z,1.79
2023-01-19T18:04:09.719Z,1.85
2023-01-19T18:06:37.571Z,1.97
2023-01-19T18:09:06.846Z,1.95
2023-01-19T18:11:35.112Z,1.95
2023-01-19T18:14:02.917Z,1.91
2023-01-19T18:16:32.475Z,1.81
2023-01-19T18:19:01.642Z,1.78
2023-01-19T18:21:30.459Z,1.64
2023-01-19T18:24:03.064Z,1.64
2023-01-19T18:26:32.266Z,1.67
2023-01-19T18:29:00.846Z,1.71
2023-01-19T18:31:28.923Z,1.74
2023-01-19T18:33:56.774Z,1.71
2023-01-19T18:36:25.936Z,1.65
2023-01-19T18:38:53.881Z,1.61
2023-01-19T18:41:22.393Z,1.52
2023-01-19T18:43:51.946Z,1.62
2023-01-19T18:46:21.117Z,1.57
2023-01-19T18:48:48.940Z,1.58
2023-01-19T18:51:17.843Z,1.57
2023-01-19T18:53:47.118Z,1.62
2023-01-19T18:56:16.612Z,1.70
2023-01-19T18:58:45.207Z,1.70
2023-01-19T19:01:22.972Z,1.72
2023-01-19T19:03:51.297Z,1.71
2023-01-19T19:06:20.774Z,1.64
2023-01-19T19:08:51.131Z,1.64
2023-01-19T19:11:21.967Z,1.67
2023-01-19T19:13:53.208Z,1.70
2023-01-19T19:16:21.079Z,1.70
2023-01-19T19:18:49.938Z,1.65
2023-01-19T19:21:18.858Z,1.60
2023-01-19T19:23:53.017Z,1.50
2023-01-19T19:26:21.237Z,1.44
2023-01-19T19:28:48.978Z,1.41
2023-01-19T19:31:20.439Z,1.44
2023-01-19T19:33:50.683Z,1.46
2023-01-19T19:36:19.816Z,1.43
2023-01-19T19:38:47.826Z,1.44
2023-01-19T19:41:18.860Z,1.40
2023-01-19T19:43:46.783Z,1.44
2023-01-19T19:46:17.742Z,1.43
2023-01-19T19:48:45.640Z,1.48
2023-01-19T19:51:19.378Z,1.47
2023-01-19T19:53:50.902Z,1.47
2023-01-19T19:56:21.859Z,1.46
2023-01-19T19:58:51.344Z,1.44
2023-01-19T20:01:21.180Z,1.47
2023-01-19T20:03:49.538Z,1.47
2023-01-19T20:06:20.784Z,1.34
2023-01-19T20:08:49.022Z,1.31
2023-01-19T20:11:19.094Z,1.15
2023-01-19T20:13:48.656Z,1.04
2023-01-19T20:16:18.334Z,1.10
2023-01-19T20:18:51.079Z,1.16
2023-01-19T20:21:21.191Z,1.15
2023-01-19T20:23:50.470Z,0.96
2023-01-19T20:26:19.984Z,0.97
2023-01-19T20:28:49.113Z,0.92
2023-01-19T20:31:19.386Z,0.82
2023-01-19T20:33:48.022Z,0.72
2023-01-19T20:36:16.344Z,0.82
2023-01-19T20:38:44.346Z,0.86
2023-01-19T20:41:13.662Z,0.92
2023-01-19T20:43:41.249Z,0.89
2023-01-19T20:46:10.955Z,0.86
2023-01-19T20:48:39.507Z,0.85
2023-01-19T20:51:09.945Z,0.78
2023-01-19T20:53:38.147Z,0.80
2023-01-19T20:56:06.837Z,0.80
2023-01-19T20:58:37.398Z,0.76
2023-01-19T21:01:12.722Z,0.86
2023-01-19T21:03:40.596Z,0.93
2023-01-19T21:06:09.189Z,0.97
2023-01-19T21:08:37.168Z,1.03
2023-01-19T21:11:05.556Z,1.04
2023-01-19T21:13:33.607Z,1.09
2023-01-19T21:16:02.136Z,1.13
2023-01-19T21:18:31.422Z,1.04
2023-01-19T21:20:59.512Z,1.03
2023-01-19T21:23:28.277Z,0.95
2023-01-19T21:25:58.318Z,0.88
2023-01-19T21:28:27.040Z,0.82
2023-01-19T21:30:55.881Z,0.73
2023-01-19T21:33:24.398Z,0.68
2023-01-19T21:35:54.481Z,0.65
2023-01-19T21:38:22.709Z,0.65
2023-01-19T21:40:51.220Z,0.64
2023-01-19T21:43:19.952Z,0.62
2023-01-19T21:45:48.807Z,0.70
2023-01-19T21:48:18.209Z,0.76
2023-01-19T21:50:45.818Z,0.85
2023-01-19T21:53:14.918Z,0.83
2023-01-19T21:55:45.082Z,0.82
2023-01-19T21:58:12.917Z,0.80
2023-01-19T22:00:40.974Z,0.90
2023-01-19T22:03:08.889Z,0.79
2023-01-19T22:05:37.220Z,0.76
2023-01-19T22:08:06.205Z,0.70
2023-01-19T22:10:38.088Z,0.65
2023-01-19T22:13:06.701Z,0.57
2023-01-19T22:15:34.662Z,0.54
2023-01-19T22:18:02.393Z,0.45
2023-01-19T22:20:30.273Z,0.35
2023-01-19T22:22:58.162Z,0.34
2023-01-19T22:25:27.949Z,0.21
2023-01-19T22:27:58.547Z,0.17
2023-01-19T22:30:26.544Z,0.06
2023-01-19T22:32:54.445Z,0.03
2023-01-19T22:35:22.243Z,-0.15
2023-01-19T22:37:49.991Z,-0.25
2023-01-19T22:40:18.614Z,-0.34
2023-01-19T22:42:47.744Z,-0.24
2023-01-19T22:45:17.096Z,-0.15
2023-01-19T22:47:44.984Z,-0.03
2023-01-19T22:50:12.969Z,0.13
2023-01-19T22:52:41.449Z,0.24
2023-01-19T22:55:10.201Z,0.24
2023-01-19T22:57:38.316Z,0.32
2023-01-19T23:00:08.929Z,0.37
2023-01-19T23:02:38.083Z,0.32
2023-01-19T23:05:06.661Z,0.41
2023-01-19T23:07:34.525Z,0.41
2023-01-19T23:10:02.311Z,0.34
2023-01-19T23:12:30.133Z,0.29
2023-01-19T23:14:57.851Z,0.29
2023-01-19T23:17:25.614Z,0.28
2023-01-19T23:19:55.092Z,0.22
2023-01-19T23:22:22.678Z,0.19
2023-01-19T23:24:50.448Z,0.17
2023-01-19T23:27:18.183Z,0.00
2023-01-19T23:29:46.219Z,0.01
2023-01-19T23:32:14.027Z,0.07
2023-01-19T23:34:41.988Z,0.07
2023-01-19T23:37:11.115Z,0.11
2023-01-19T23:39:38.915Z,0.11
2023-01-19T23:42:08.117Z,0.21
2023-01-19T23:44:36.046Z,0.24
2023-01-19T23:47:03.813Z,0.34
2023-01-19T23:49:31.613Z,0.49
2023-01-19T23:51:59.392Z,0.51
2023-01-19T23:54:28.538Z,0.49
2023-01-19T23:56:56.249Z,0.52
2023-01-19T23:59:23.986Z,0.58
